Time;durP1;ratioP1;P1;durP2;ratioP2;P2;SDS_P1;SDS_P2;PMS_P1;PMS_P2;Temp;Humidity;BMP_temperature;BMP_pressure;BME280_temperature;BME280_humidity;BME280_pressure;Samples;Min_cycle;Max_cycle;Signal;HPM_P1;HPM_P2
2023/04/10 00:01:34;;;;;;;13.00;7.90;;;9.70;1.00;;;;;;4986964;28;20187;-75
2023/04/10 00:04:04;;;;;;;11.50;8.13;;;9.70;1.00;;;;;;4985974;28;20617;-74
2023/04/10 00:06:31;;;;;;;10.50;7.60;;;9.70;1.00;;;;;;4986712;28;20454;-74
2023/04/10 00:08:57;;;;;;;12.10;8.43;;;9.70;1.00;;;;;;5047115;22;21066;-74
2023/04/10 00:11:24;;;;;;;12.80;8.60;;;9.70;1.00;;;;;;5008195;28;20428;-74
2023/04/10 00:13:49;;;;;;;16.80;9.60;;;9.60;1.00;;;;;;5041168;22;20798;-73
2023/04/10 00:16:15;;;;;;;11.90;8.10;;;9.60;1.00;;;;;;5005937;28;20525;-73
2023/04/10 00:18:40;;;;;;;11.30;8.37;;;9.60;1.00;;;;;;5033113;28;20264;-74
2023/04/10 00:21:06;;;;;;;10.03;7.80;;;9.60;1.00;;;;;;5003892;28;20570;-73
2023/04/10 00:23:33;;;;;;;10.50;7.90;;;9.60;1.00;;;;;;5003216;28;20661;-71
2023/04/10 00:25:59;;;;;;;11.10;8.50;;;;;;;;;;5100839;22;20225;-71
2023/04/10 00:28:25;;;;;;;13.60;8.40;;;9.50;1.00;;;;;;5061820;22;20498;-72
2023/04/10 00:30:50;;;;;;;11.17;7.97;;;9.50;1.00;;;;;;4989495;28;20614;-71
2023/04/10 00:33:16;;;;;;;11.83;8.03;;;9.50;1.00;;;;;;4991549;28;20752;-71
2023/04/10 00:35:41;;;;;;;11.73;8.40;;;9.40;1.00;;;;;;5041256;23;20468;-72
2023/04/10 00:38:07;;;;;;;11.23;8.27;;;9.30;1.00;;;;;;5114458;22;20994;-72
2023/04/10 00:40:33;;;;;;;11.07;8.23;;;9.30;1.00;;;;;;5100902;22;20611;-71
2023/04/10 00:42:59;;;;;;;11.70;8.30;;;9.30;1.00;;;;;;5054492;22;20219;-71
2023/04/10 00:45:24;;;;;;;10.90;8.40;;;9.30;1.00;;;;;;4991804;28;20254;-71
2023/04/10 00:47:50;;;;;;;11.23;8.37;;;9.30;1.00;;;;;;4990726;28;20473;-71
2023/04/10 00:50:16;;;;;;;11.10;8.90;;;9.20;1.00;;;;;;4990107;28;20207;-72
2023/04/10 00:52:42;;;;;;;13.93;9.00;;;9.10;1.00;;;;;;4995082;28;20432;-71
2023/04/10 00:55:08;;;;;;;18.40;9.53;;;;;;;;;;5318193;22;20258;-69
2023/04/10 00:57:35;;;;;;;11.07;8.50;;;8.80;1.00;;;;;;5132398;22;20600;-71
2023/04/10 01:00:01;;;;;;;12.60;8.97;;;8.80;1.00;;;;;;5013283;28;20457;-71
2023/04/10 01:02:26;;;;;;;13.50;8.90;;;9.30;1.00;;;;;;5014150;28;20460;-71
2023/04/10 01:04:55;;;;;;;12.97;8.43;;;8.60;1.00;;;;;;5012599;28;20450;-71
2023/04/10 01:07:47;;;;;;;13.90;8.70;;;8.60;1.00;;;;;;5014597;28;20190;-71
2023/04/10 01:10:48;;;;;;;13.70;8.40;;;8.50;1.00;;;;;;5008469;28;20461;-72
2023/04/10 01:13:49;;;;;;;12.93;9.20;;;8.40;1.00;;;;;;5091921;23;20487;-76
2023/04/10 01:16:25;;;;;;;12.10;8.63;;;8.50;1.00;;;;;;5048134;28;20442;-76
2023/04/10 01:18:58;;;;;;;11.30;8.30;;;8.60;1.00;;;;;;5054333;28;20470;-75
2023/04/10 01:21:25;;;;;;;12.33;8.73;;;8.70;1.00;;;;;;5047356;28;20443;-76
2023/04/10 01:24:23;;;;;;;10.53;8.07;;;8.80;1.00;;;;;;5028115;28;20444;-75
2023/04/10 01:27:03;;;;;;;12.93;8.63;;;8.80;1.00;;;;;;5038628;28;20432;-76
2023/04/10 01:29:31;;;;;;;12.60;8.03;;;8.80;1.00;;;;;;5027455;28;20972;-75
2023/04/10 01:32:06;;;;;;;12.40;8.90;;;8.80;1.00;;;;;;5028887;28;20539;-75
2023/04/10 01:34:37;;;;;;;15.43;8.30;;;10.30;1.00;;;;;;5022424;28;20503;-75
2023/04/10 01:37:14;;;;;;;12.03;8.63;;;8.80;1.00;;;;;;5029151;28;20436;-75
2023/04/10 01:39:42;;;;;;;13.30;8.13;;;10.20;1.00;;;;;;5035837;28;20436;-75
2023/04/10 01:42:10;;;;;;;10.83;8.10;;;8.70;1.00;;;;;;5024119;28;20838;-75
2023/04/10 01:44:41;;;;;;;12.40;9.00;;;8.60;1.00;;;;;;5027660;28;21041;-75
2023/04/10 01:47:07;;;;;;;12.17;8.43;;;8.60;1.00;;;;;;5025493;28;20425;-75
2023/04/10 01:49:34;;;;;;;9.90;7.20;;;8.60;1.00;;;;;;5027724;28;20444;-75
2023/04/10 01:52:01;;;;;;;10.77;8.07;;;8.90;1.00;;;;;;5027068;28;20231;-75
2023/04/10 01:54:27;;;;;;;11.40;8.30;;;8.70;1.00;;;;;;5028061;28;21009;-75
2023/04/10 01:56:53;;;;;;;13.30;8.90;;;8.70;1.00;;;;;;5027797;28;20453;-75
2023/04/10 01:59:19;;;;;;;11.73;8.47;;;8.70;1.00;;;;;;5027116;28;20452;-76
2023/04/10 02:01:45;;;;;;;12.07;8.20;;;8.70;1.00;;;;;;5028003;28;20507;-75
2023/04/10 02:04:11;;;;;;;9.83;7.47;;;8.80;1.00;;;;;;5027252;28;20440;-75
2023/04/10 02:06:50;;;;;;;10.03;7.87;;;8.80;1.00;;;;;;5027847;28;20564;-75
2023/04/10 02:09:29;;;;;;;11.00;8.13;;;8.80;1.00;;;;;;5026917;28;20560;-75
2023/04/10 02:12:00;;;;;;;11.40;8.10;;;8.80;1.00;;;;;;5023262;28;20467;-75
2023/04/10 02:14:28;;;;;;;10.90;8.27;;;8.80;1.00;;;;;;5026731;28;20571;-75
2023/04/10 02:16:55;;;;;;;10.87;7.73;;;8.80;1.00;;;;;;5028403;28;20490;-75
2023/04/10 02:19:23;;;;;;;11.10;8.47;;;9.00;1.00;;;;;;5026828;28;20424;-76
2023/04/10 02:21:50;;;;;;;10.57;7.93;;;8.90;1.00;;;;;;5026812;28;20460;-75
2023/04/10 02:24:16;;;;;;;12.13;8.37;;;8.90;1.00;;;;;;5026887;28;20444;-75
2023/04/10 02:26:50;;;;;;;12.60;8.50;;;8.90;1.00;;;;;;5027915;28;20528;-75
2023/04/10 02:29:16;;;;;;;11.53;8.33;;;8.90;1.00;;;;;;5025845;28;20440;-76
2023/04/10 02:31:43;;;;;;;11.60;8.17;;;8.90;1.00;;;;;;5027153;28;20958;-76
2023/04/10 02:34:08;;;;;;;10.90;8.00;;;8.90;1.00;;;;;;5030925;28;20547;-75
2023/04/10 02:36:36;;;;;;;10.23;7.80;;;8.90;1.00;;;;;;5029436;28;20924;-75
2023/04/10 02:39:02;;;;;;;12.07;7.97;;;8.80;1.00;;;;;;5025376;28;20324;-75
2023/04/10 02:41:28;;;;;;;12.90;7.80;;;8.80;1.00;;;;;;5026552;28;20578;-75
2023/04/10 02:43:54;;;;;;;10.03;7.73;;;8.80;1.00;;;;;;5026075;28;20939;-76
2023/04/10 02:46:19;;;;;;;13.30;8.43;;;8.80;1.00;;;;;;5027728;28;20190;-75
2023/04/10 02:48:45;;;;;;;12.47;7.87;;;8.80;1.00;;;;;;5026898;28;20213;-75
2023/04/10 02:51:10;;;;;;;12.10;8.03;;;8.70;1.00;;;;;;5025963;28;20534;-76
2023/04/10 02:53:36;;;;;;;11.03;8.37;;;8.90;1.00;;;;;;5026029;28;20216;-76
2023/04/10 02:56:02;;;;;;;11.60;8.50;;;8.90;1.00;;;;;;5026122;28;20197;-76
2023/04/10 02:58:29;;;;;;;10.10;7.70;;;8.90;1.00;;;;;;5027297;28;20667;-76
2023/04/10 03:00:55;;;;;;;10.57;8.03;;;8.90;1.00;;;;;;5026679;28;20974;-76
2023/04/10 03:03:21;;;;;;;11.43;8.30;;;8.90;1.00;;;;;;5026312;28;20478;-76
2023/04/10 03:05:48;;;;;;;11.70;7.90;;;8.90;1.00;;;;;;5026009;28;20942;-76
2023/04/10 03:08:17;;;;;;;10.53;7.93;;;8.90;1.00;;;;;;5025826;28;20197;-76
2023/04/10 03:10:49;;;;;;;10.80;7.73;;;8.90;1.00;;;;;;5025304;28;20527;-75
2023/04/10 03:13:15;;;;;;;11.10;8.10;;;8.90;1.00;;;;;;5037981;28;20469;-75
2023/04/10 03:15:41;;;;;;;12.77;8.90;;;8.90;1.00;;;;;;5026173;28;20435;-76
2023/04/10 03:18:08;;;;;;;10.93;7.70;;;8.90;1.00;;;;;;5023567;28;20190;-75
2023/04/10 03:20:35;;;;;;;12.37;8.00;;;10.60;1.00;;;;;;5024591;28;20288;-75
2023/04/10 03:23:02;;;;;;;13.40;8.00;;;8.90;1.00;;;;;;5026253;28;20851;-76
2023/04/10 03:25:28;;;;;;;11.77;8.17;;;9.00;1.00;;;;;;5026101;28;20499;-76
2023/04/10 03:27:54;;;;;;;10.87;8.10;;;8.80;1.00;;;;;;5025373;28;21065;-75
2023/04/10 03:30:20;;;;;;;11.40;7.97;;;8.80;1.00;;;;;;5025041;28;20569;-76
2023/04/10 03:32:45;;;;;;;13.17;9.23;;;8.80;1.00;;;;;;5026782;28;20676;-75
2023/04/10 03:35:11;;;;;;;12.50;8.43;;;8.80;1.00;;;;;;5028396;28;20186;-76
2023/04/10 03:37:37;;;;;;;10.77;7.80;;;8.70;1.00;;;;;;5026895;28;20181;-75
2023/04/10 03:40:07;;;;;;;11.43;8.20;;;8.70;1.00;;;;;;5025136;28;20201;-75
2023/04/10 03:42:34;;;;;;;14.60;9.43;;;8.70;1.00;;;;;;5025257;28;20216;-75
2023/04/10 03:45:03;;;;;;;12.30;8.27;;;8.70;1.00;;;;;;5026920;28;20424;-74
2023/04/10 03:47:30;;;;;;;12.70;8.40;;;8.70;1.00;;;;;;5025805;28;20436;-74
2023/04/10 03:49:56;;;;;;;12.33;8.33;;;8.70;1.00;;;;;;5026914;28;20445;-74
2023/04/10 03:52:21;;;;;;;12.07;8.70;;;8.60;1.00;;;;;;5023308;28;20902;-74
2023/04/10 03:54:47;;;;;;;12.90;9.07;;;8.60;1.00;;;;;;5026946;28;20296;-74
2023/04/10 03:57:12;;;;;;;12.70;8.73;;;8.60;1.00;;;;;;5026183;28;20245;-74
2023/04/10 03:59:38;;;;;;;12.60;8.07;;;8.60;1.00;;;;;;5018030;28;20268;-74
2023/04/10 04:02:05;;;;;;;11.73;7.90;;;8.60;1.00;;;;;;5025587;28;20244;-74
2023/04/10 04:04:31;;;;;;;12.23;8.20;;;8.70;1.00;;;;;;5026300;28;20186;-74
2023/04/10 04:06:56;;;;;;;10.57;8.27;;;8.60;1.00;;;;;;5030908;28;20435;-74
2023/04/10 04:09:22;;;;;;;11.43;7.90;;;8.60;1.00;;;;;;5027480;28;20217;-74
2023/04/10 04:11:47;;;;;;;11.60;8.30;;;8.60;1.00;;;;;;5029182;28;20256;-74
2023/04/10 04:14:13;;;;;;;12.00;8.20;;;10.40;1.00;;;;;;5030002;28;20588;-74
2023/04/10 04:16:38;;;;;;;11.90;8.60;;;8.60;1.00;;;;;;5028208;28;20178;-74
2023/04/10 04:19:04;;;;;;;11.70;8.27;;;8.60;1.00;;;;;;5028959;28;20186;-74
2023/04/10 04:21:30;;;;;;;14.40;8.40;;;8.50;1.00;;;;;;5028591;28;20181;-74
2023/04/10 04:23:55;;;;;;;11.07;8.10;;;8.50;1.00;;;;;;5035559;28;20185;-74
2023/04/10 04:26:23;;;;;;;12.33;8.30;;;8.20;1.00;;;;;;5029878;28;20201;-74
2023/04/10 04:28:49;;;;;;;11.63;7.93;;;8.50;1.00;;;;;;5028095;28;20190;-74
2023/04/10 04:31:15;;;;;;;11.57;8.30;;;8.50;1.00;;;;;;5029419;28;20435;-74
2023/04/10 04:33:40;;;;;;;11.30;7.83;;;8.50;1.00;;;;;;5027874;28;20279;-74
2023/04/10 04:36:06;;;;;;;11.13;7.80;;;8.40;1.00;;;;;;5028914;28;20186;-75
2023/04/10 04:38:32;;;;;;;11.23;7.77;;;8.40;1.00;;;;;;5028915;28;20217;-74
2023/04/10 04:40:57;;;;;;;12.07;8.73;;;8.40;1.00;;;;;;5024638;28;20193;-75
2023/04/10 04:43:23;;;;;;;11.00;8.00;;;8.40;1.00;;;;;;5028963;28;20209;-74
2023/04/10 04:45:49;;;;;;;12.33;7.80;;;8.40;1.00;;;;;;5029724;28;20189;-74
2023/04/10 04:48:14;;;;;;;12.10;7.67;;;8.40;1.00;;;;;;5028159;28;20197;-74
2023/04/10 04:50:40;;;;;;;14.63;7.73;;;8.60;1.00;;;;;;5027733;28;20193;-74
2023/04/10 04:53:07;;;;;;;12.03;8.20;;;8.40;1.00;;;;;;5026670;28;20214;-75
2023/04/10 04:55:33;;;;;;;12.50;8.13;;;8.50;1.00;;;;;;5028273;28;20953;-74
2023/04/10 04:57:58;;;;;;;11.03;8.20;;;8.50;1.00;;;;;;5030203;28;20432;-74
2023/04/10 05:00:24;;;;;;;12.33;8.10;;;8.40;1.00;;;;;;5029337;28;20217;-74
2023/04/10 05:02:50;;;;;;;11.87;8.33;;;8.40;1.00;;;;;;5027171;28;20757;-74
2023/04/10 05:05:15;;;;;;;11.47;8.10;;;8.50;1.00;;;;;;5029397;28;20193;-74
2023/04/10 05:07:41;;;;;;;12.70;8.90;;;8.50;1.00;;;;;;5028394;28;20240;-74
2023/04/10 05:10:07;;;;;;;11.50;8.10;;;8.50;1.00;;;;;;5029308;28;20240;-74
2023/04/10 05:12:33;;;;;;;13.33;8.83;;;8.60;1.00;;;;;;5026422;28;20213;-74
2023/04/10 05:14:59;;;;;;;11.70;8.13;;;8.60;1.00;;;;;;5029436;28;20443;-74
2023/04/10 05:17:25;;;;;;;12.37;8.63;;;8.70;1.00;;;;;;5024923;28;20185;-74
2023/04/10 05:19:50;;;;;;;12.80;8.10;;;8.70;1.00;;;;;;5029359;28;20182;-74
2023/04/10 05:22:16;;;;;;;11.27;8.27;;;8.70;1.00;;;;;;5027346;28;20288;-74
2023/04/10 05:24:41;;;;;;;11.60;8.10;;;8.70;1.00;;;;;;5029315;28;20236;-74
2023/04/10 05:27:07;;;;;;;12.67;8.10;;;8.70;1.00;;;;;;5028586;28;20192;-74
2023/04/10 05:29:33;;;;;;;13.27;8.60;;;8.90;1.00;;;;;;5029072;28;20908;-74
2023/04/10 05:31:59;;;;;;;11.80;8.20;;;9.00;1.00;;;;;;5027932;28;20297;-75
2023/04/10 05:34:24;;;;;;;13.67;9.10;;;8.80;1.00;;;;;;5028990;28;20547;-74
2023/04/10 05:36:50;;;;;;;11.90;7.27;;;8.80;1.00;;;;;;5027921;28;20684;-74
2023/04/10 05:39:16;;;;;;;11.60;8.50;;;8.90;1.00;;;;;;5026385;28;20177;-74
2023/04/10 05:41:41;;;;;;;12.07;8.80;;;9.00;1.00;;;;;;5027306;28;20667;-75
2023/04/10 05:44:07;;;;;;;11.23;8.00;;;8.90;1.00;;;;;;5029114;28;20177;-74
2023/04/10 05:46:33;;;;;;;10.30;7.83;;;9.00;1.00;;;;;;5026855;28;20178;-74
2023/04/10 05:48:58;;;;;;;11.53;8.47;;;9.20;1.00;;;;;;5025247;28;20660;-75
2023/04/10 05:51:25;;;;;;;11.50;8.63;;;9.10;1.00;;;;;;5026745;28;20576;-75
2023/04/10 05:53:50;;;;;;;10.43;7.60;;;9.00;1.00;;;;;;5028700;28;20700;-74
2023/04/10 05:56:16;;;;;;;16.90;8.20;;;9.20;1.00;;;;;;5027027;28;20641;-74
2023/04/10 05:58:42;;;;;;;12.63;8.60;;;9.30;1.00;;;;;;5026380;28;20177;-75
2023/04/10 06:01:07;;;;;;;10.40;7.80;;;9.30;1.00;;;;;;5035625;28;20181;-75
2023/04/10 06:03:33;;;;;;;11.93;8.33;;;9.60;1.00;;;;;;5028109;28;20205;-76
2023/04/10 06:06:01;;;;;;;12.80;7.67;;;9.40;1.00;;;;;;5028587;28;20236;-74
2023/04/10 06:08:27;;;;;;;11.07;7.87;;;9.50;1.00;;;;;;5027276;28;20193;-74
2023/04/10 06:10:53;;;;;;;11.40;7.93;;;9.60;1.00;;;;;;5026848;28;20433;-74
2023/04/10 06:13:18;;;;;;;13.13;8.90;;;9.60;1.00;;;;;;5027347;28;20483;-74
2023/04/10 06:15:44;;;;;;;14.07;8.87;;;9.80;1.00;;;;;;5025949;28;20182;-75
2023/04/10 06:18:10;;;;;;;11.47;8.30;;;9.90;1.00;;;;;;5027182;28;20483;-75
2023/04/10 06:20:35;;;;;;;13.90;9.37;;;10.00;1.00;;;;;;5034873;28;20178;-74
2023/04/10 06:23:01;;;;;;;11.77;8.07;;;10.10;1.00;;;;;;5028009;28;20843;-74
2023/04/10 06:25:27;;;;;;;11.37;8.23;;;10.20;1.00;;;;;;5027822;28;20671;-75
2023/04/10 06:27:53;;;;;;;12.20;8.57;;;9.20;1.00;;;;;;5022585;28;20264;-75
2023/04/10 06:30:18;;;;;;;10.80;7.83;;;10.50;1.00;;;;;;5026675;28;20563;-75
2023/04/10 06:32:44;;;;;;;11.20;8.37;;;10.60;1.00;;;;;;5025900;28;20258;-75
2023/04/10 06:35:10;;;;;;;12.03;8.33;;;10.70;1.00;;;;;;5027111;28;20190;-74
2023/04/10 06:37:36;;;;;;;11.13;8.30;;;10.80;1.00;;;;;;5025521;28;20273;-75
2023/04/10 06:40:12;;;;;;;13.93;8.00;;;10.90;1.00;;;;;;5024189;28;20532;-74
2023/04/10 06:42:38;;;;;;;12.27;8.17;;;11.10;1.00;;;;;;5024597;28;20702;-75
2023/04/10 06:45:04;;;;;;;11.80;8.10;;;11.30;1.00;;;;;;5025118;28;20440;-78
2023/04/10 06:47:30;;;;;;;10.33;7.73;;;11.30;1.00;;;;;;5025489;28;20185;-75
2023/04/10 06:49:56;;;;;;;10.53;7.50;;;11.50;1.00;;;;;;5025858;28;20811;-74
2023/04/10 06:52:22;;;;;;;11.43;8.63;;;11.50;1.00;;;;;;5026213;28;20603;-75
2023/04/10 06:54:47;;;;;;;9.70;7.30;;;11.60;1.00;;;;;;5036676;28;20625;-75
2023/04/10 06:57:13;;;;;;;9.23;7.17;;;11.60;1.00;;;;;;5026156;28;20232;-75
2023/04/10 06:59:39;;;;;;;10.93;8.03;;;11.70;1.00;;;;;;5026541;28;20716;-74
2023/04/10 07:02:04;;;;;;;11.13;7.97;;;11.70;1.00;;;;;;5024926;28;20719;-74
2023/04/10 07:04:30;;;;;;;13.47;8.77;;;12.00;1.00;;;;;;5019645;28;20197;-74
2023/04/10 07:06:56;;;;;;;12.63;7.80;;;12.00;1.00;;;;;;5024428;28;20775;-74
2023/04/10 07:09:27;;;;;;;10.90;8.13;;;12.30;1.00;;;;;;5026118;28;20460;-75
2023/04/10 07:11:53;;;;;;;11.83;8.20;;;12.30;1.00;;;;;;5025036;28;20296;-75
2023/04/10 07:14:19;;;;;;;11.73;8.30;;;12.70;1.00;;;;;;5024338;28;20563;-75
2023/04/10 07:16:44;;;;;;;11.30;8.13;;;13.30;1.00;;;;;;5025499;28;20178;-75
2023/04/10 07:19:10;;;;;;;11.13;8.70;;;13.40;1.00;;;;;;5023651;28;20198;-75
2023/04/10 07:21:36;;;;;;;9.97;8.00;;;13.30;1.00;;;;;;5025791;28;20185;-75
2023/04/10 07:24:01;;;;;;;11.33;8.33;;;13.30;1.00;;;;;;5027217;28;20210;-75
2023/04/10 07:26:27;;;;;;;11.10;8.07;;;13.30;1.00;;;;;;5026747;28;20197;-75
2023/04/10 07:28:52;;;;;;;11.30;8.53;;;13.30;1.00;;;;;;5026635;28;20186;-75
2023/04/10 07:31:18;;;;;;;11.57;8.00;;;13.60;1.00;;;;;;5026532;28;20190;-75
2023/04/10 07:33:45;;;;;;;10.17;7.60;;;14.20;1.00;;;;;;5026856;28;20268;-75
2023/04/10 07:36:11;;;;;;;10.37;8.00;;;15.20;1.00;;;;;;5025503;28;20204;-75
2023/04/10 07:38:37;;;;;;;11.40;8.77;;;15.90;1.00;;;;;;5034564;28;20527;-75
2023/04/10 07:41:03;;;;;;;12.97;10.07;;;16.40;1.00;;;;;;5027413;28;20232;-76
2023/04/10 07:43:29;;;;;;;12.60;10.07;;;17.10;1.00;;;;;;5030764;28;21070;-75
2023/04/10 07:45:56;;;;;;;13.20;10.50;;;17.50;1.00;;;;;;5030837;28;20420;-75
2023/04/10 07:48:21;;;;;;;13.87;10.50;;;17.70;1.00;;;;;;5031029;28;20434;-75
2023/04/10 07:50:47;;;;;;;12.10;9.90;;;17.80;1.00;;;;;;5031364;28;22297;-76
2023/04/10 07:53:13;;;;;;;11.90;9.90;;;17.60;1.00;;;;;;5033828;28;20216;-75
2023/04/10 07:55:40;;;;;;;13.13;10.10;;;17.90;1.00;;;;;;5028240;28;20555;-76
2023/04/10 07:58:06;;;;;;;12.70;10.00;;;18.00;1.00;;;;;;5032042;28;20217;-76
2023/04/10 08:00:32;;;;;;;12.33;10.00;;;18.40;1.00;;;;;;5039297;28;20537;-76
2023/04/10 08:02:58;;;;;;;12.63;10.70;;;18.60;1.00;;;;;;5035086;28;20227;-76
2023/04/10 08:05:23;;;;;;;13.13;10.10;;;19.00;1.00;;;;;;5035938;28;20440;-76
2023/04/10 08:07:49;;;;;;;13.93;11.00;;;19.50;1.00;;;;;;5033469;28;20180;-75
2023/04/10 08:10:14;;;;;;;12.13;9.73;;;20.00;1.00;;;;;;5039973;28;20659;-75
2023/04/10 08:12:40;;;;;;;13.50;9.97;;;20.20;1.00;;;;;;5038800;28;20268;-75
2023/04/10 08:15:06;;;;;;;11.83;10.30;;;20.00;1.00;;;;;;5043043;28;20180;-75
2023/04/10 08:17:32;;;;;;;11.80;10.10;;;19.90;1.00;;;;;;5031946;28;20292;-76
2023/04/10 08:19:57;;;;;;;11.97;9.60;;;19.70;1.00;;;;;;5036109;28;20438;-76
2023/04/10 08:22:23;;;;;;;11.43;9.50;;;19.20;1.00;;;;;;5029276;28;20671;-75
2023/04/10 08:24:48;;;;;;;10.93;9.10;;;19.30;1.00;;;;;;5036742;28;21418;-76
2023/04/10 08:27:15;;;;;;;11.50;9.10;;;19.50;1.00;;;;;;5029295;28;20193;-76
2023/04/10 08:29:41;;;;;;;10.73;9.07;;;19.90;1.00;;;;;;5029911;28;20185;-76
2023/04/10 08:32:06;;;;;;;10.13;8.30;;;20.30;1.00;;;;;;5046025;28;20457;-76
2023/04/10 08:34:32;;;;;;;13.67;9.17;;;20.60;1.00;;;;;;5029772;28;20833;-76
2023/04/10 08:36:58;;;;;;;10.27;9.07;;;20.90;1.00;;;;;;5030327;28;20173;-75
2023/04/10 08:39:23;;;;;;;11.93;8.97;;;21.40;1.00;;;;;;5029497;28;20656;-75
2023/04/10 08:41:49;;;;;;;10.37;8.77;;;21.40;1.00;;;;;;5030170;28;20201;-75
2023/04/10 08:44:15;;;;;;;10.10;8.60;;;21.50;1.00;;;;;;5030317;28;20179;-75
2023/04/10 08:46:43;;;;;;;11.77;7.67;;;21.70;1.00;;;;;;5029797;28;20663;-75
2023/04/10 08:49:14;;;;;;;9.67;8.37;;;21.80;1.00;;;;;;5030039;28;20189;-75
2023/04/10 08:51:50;;;;;;;10.70;7.80;;;22.20;1.00;;;;;;5031245;28;20443;-75
2023/04/10 08:54:24;;;;;;;9.50;8.20;;;22.30;1.00;;;;;;5027481;28;20467;-75
2023/04/10 08:56:52;;;;;;;8.77;7.20;;;22.40;1.00;;;;;;5025933;28;20528;-76
2023/04/10 08:59:18;;;;;;;9.57;7.77;;;23.00;1.00;;;;;;5031323;28;20454;-75
2023/04/10 09:01:46;;;;;;;9.00;7.27;;;23.40;1.00;;;;;;5026417;28;20435;-75
2023/04/10 09:04:12;;;;;;;8.90;8.00;;;23.30;1.00;;;;;;5028994;28;20440;-75
2023/04/10 09:06:38;;;;;;;9.30;8.13;;;23.30;1.00;;;;;;5031117;28;20432;-75
2023/04/10 09:09:07;;;;;;;8.53;7.50;;;23.60;1.00;;;;;;5031001;28;20458;-75
2023/04/10 09:11:50;;;;;;;8.93;7.67;;;24.30;1.00;;;;;;5033291;28;20542;-75
2023/04/10 09:14:32;;;;;;;12.03;7.20;;;24.30;1.00;;;;;;5025452;28;20559;-76
2023/04/10 09:17:20;;;;;;;8.70;7.40;;;24.50;1.00;;;;;;5027137;28;20198;-77
2023/04/10 09:19:54;;;;;;;9.10;7.50;;;25.00;1.00;;;;;;5029391;28;20216;-76
2023/04/10 09:22:31;;;;;;;7.93;6.97;;;24.60;1.00;;;;;;5033172;28;20680;-75
2023/04/10 09:24:58;;;;;;;8.90;7.00;;;25.00;1.00;;;;;;5027765;28;20212;-76
2023/04/10 09:27:31;;;;;;;8.10;6.97;;;25.90;1.00;;;;;;5026900;28;20177;-75
2023/04/10 09:29:57;;;;;;;8.03;7.00;;;25.80;1.00;;;;;;5037379;28;20220;-76
2023/04/10 09:32:43;;;;;;;8.50;7.40;;;25.10;1.00;;;;;;5041038;28;20212;-75
2023/04/10 09:35:11;;;;;;;8.53;6.73;;;25.40;1.00;;;;;;5027854;28;20208;-76
2023/04/10 09:37:38;;;;;;;8.13;6.73;;;25.40;1.00;;;;;;5039934;28;20578;-76
2023/04/10 09:40:04;;;;;;;7.60;6.47;;;25.10;1.00;;;;;;5025837;28;20265;-79
2023/04/10 09:42:39;;;;;;;10.80;6.27;;;24.60;1.00;;;;;;5030408;28;20193;-77
2023/04/10 09:45:05;;;;;;;7.20;6.27;;;25.40;1.00;;;;;;5030254;28;20188;-80
2023/04/10 09:47:31;;;;;;;15.53;6.20;;;25.60;1.00;;;;;;5030341;28;20193;-80
2023/04/10 09:50:01;;;;;;;6.87;5.87;;;26.00;1.00;;;;;;5027221;28;20719;-80
2023/04/10 09:52:32;;;;;;;6.67;5.93;;;27.00;1.00;;;;;;5027391;28;20551;-80
2023/04/10 09:55:06;;;;;;;8.10;6.03;;;26.70;1.00;;;;;;5025035;28;20228;-79
2023/04/10 09:57:34;;;;;;;9.63;8.23;;;26.30;1.00;;;;;;5031755;28;20328;-79
2023/04/10 10:00:03;;;;;;;6.37;5.77;;;26.30;1.00;;;;;;5032242;28;20177;-80
2023/04/10 10:02:30;;;;;;;12.40;8.27;;;26.10;1.00;;;;;;5030038;28;20223;-80
2023/04/10 10:05:00;;;;;;;10.83;8.50;;;25.90;1.00;;;;;;5030531;28;20185;-79
2023/04/10 10:07:26;;;;;;;9.30;6.77;;;25.00;1.00;;;;;;5024360;28;20692;-80
2023/04/10 10:09:52;;;;;;;7.47;6.60;;;24.40;1.00;;;;;;5029700;28;20509;-80
2023/04/10 10:12:40;;;;;;;7.83;6.40;;;24.50;1.00;;;;;;5026988;28;20471;-78
2023/04/10 10:15:09;;;;;;;7.83;6.07;;;24.70;1.00;;;;;;5043840;28;20256;-79
2023/04/10 10:17:48;;;;;;;7.17;6.03;;;24.30;1.00;;;;;;5029279;28;20438;-80
2023/04/10 10:20:19;;;;;;;8.70;6.60;;;24.70;1.00;;;;;;5029583;28;20443;-80
2023/04/10 10:22:46;;;;;;;7.20;6.17;;;25.30;1.00;;;;;;5028837;28;20452;-79
2023/04/10 10:25:12;;;;;;;7.20;6.30;;;25.80;1.00;;;;;;5025660;28;20462;-80
2023/04/10 10:27:40;;;;;;;9.33;6.50;;;26.30;1.00;;;;;;5044063;28;20227;-80
2023/04/10 10:30:08;;;;;;;7.13;6.30;;;26.40;1.00;;;;;;5043729;28;20280;-80
2023/04/10 10:32:35;;;;;;;7.00;5.73;;;26.70;1.00;;;;;;5026290;28;20201;-80
2023/04/10 10:35:06;;;;;;;7.00;5.37;;;26.90;1.00;;;;;;5026117;28;20292;-80
2023/04/10 10:37:33;;;;;;;5.97;5.30;;;28.00;1.00;;;;;;5029289;28;20528;-80
2023/04/10 10:40:10;;;;;;;6.20;5.25;;;28.40;1.00;;;;;;5026143;28;20177;-80
2023/04/10 10:42:41;;;;;;;6.53;5.20;;;29.00;1.00;;;;;;5026898;28;20387;-80
2023/04/10 10:45:12;;;;;;;5.80;4.80;;;28.80;1.00;;;;;;5025209;28;20281;-80
2023/04/10 10:47:50;;;;;;;6.35;5.07;;;28.60;1.00;;;;;;5030585;28;20852;-80
2023/04/10 10:50:15;;;;;;;6.22;5.22;;;28.00;1.00;;;;;;5029641;28;20285;-80
2023/04/10 10:52:48;;;;;;;7.13;5.35;;;27.90;1.00;;;;;;5027420;28;20347;-80
2023/04/10 10:55:35;;;;;;;6.65;5.70;;;28.70;1.00;;;;;;5038471;28;20192;-80
2023/04/10 10:58:04;;;;;;;7.53;6.10;;;29.60;1.00;;;;;;5029364;28;20606;-80
2023/04/10 11:01:02;;;;;;;6.38;5.45;;;29.30;1.00;;;;;;5030878;28;20188;-80
2023/04/10 11:03:28;;;;;;;7.45;6.00;;;29.40;1.00;;;;;;4982906;28;20221;-80
2023/04/10 11:06:01;;;;;;;5.75;5.03;;;29.00;1.00;;;;;;5032401;28;20208;-80
2023/04/10 11:08:35;;;;;;;6.28;5.15;;;29.90;1.00;;;;;;5030788;28;20188;-80
2023/04/10 11:11:04;;;;;;;6.50;5.22;;;30.40;1.00;;;;;;5031077;28;20192;-80
2023/04/10 11:13:35;;;;;;;6.32;4.93;;;31.30;1.00;;;;;;5045566;28;20197;-80
2023/04/10 11:16:02;;;;;;;6.00;5.30;;;32.10;1.00;;;;;;5037349;28;20473;-79
2023/04/10 11:18:48;;;;;;;5.97;5.35;;;31.70;1.00;;;;;;5025101;28;20264;-76
2023/04/10 11:21:21;;;;;;;5.15;4.55;;;31.80;1.00;;;;;;5018262;28;20182;-77
2023/04/10 11:23:53;;;;;;;6.00;4.90;;;30.80;1.00;;;;;;5031187;28;20201;-76
2023/04/10 11:26:34;;;;;;;5.57;4.97;;;31.30;1.00;;;;;;5022347;28;20668;-76
2023/04/10 11:29:16;;;;;;;5.60;4.85;;;31.50;1.00;;;;;;5025371;28;20598;-77
2023/04/10 11:32:02;;;;;;;7.18;5.18;;;31.90;1.00;;;;;;5023214;28;20196;-77
2023/04/10 11:34:29;;;;;;;6.32;5.30;;;31.70;1.00;;;;;;5037507;28;20216;-77
2023/04/10 11:36:55;;;;;;;5.28;4.50;;;31.80;1.00;;;;;;5030454;28;20185;-76
2023/04/10 11:39:21;;;;;;;4.90;4.20;;;31.50;1.00;;;;;;5023898;28;20181;-76
2023/04/10 11:41:49;;;;;;;4.80;4.30;;;30.90;1.00;;;;;;5023765;28;20197;-77
2023/04/10 11:44:16;;;;;;;6.15;4.90;;;31.00;1.00;;;;;;5024581;28;20185;-76
2023/04/10 11:46:46;;;;;;;6.65;4.35;;;30.20;1.00;;;;;;5025739;28;20181;-76
2023/04/10 11:49:16;;;;;;;5.07;4.53;;;30.00;1.00;;;;;;5024490;28;20189;-76
2023/04/10 11:51:45;;;;;;;7.78;4.70;;;30.50;1.00;;;;;;5025283;28;20184;-76
2023/04/10 11:54:19;;;;;;;6.13;5.03;;;30.50;1.00;;;;;;5026627;28;20211;-77
2023/04/10 11:56:57;;;;;;;5.53;4.72;;;30.40;1.00;;;;;;5026409;28;20259;-76
2023/04/10 11:59:23;;;;;;;6.40;4.57;;;30.10;1.00;;;;;;5026707;28;20717;-76
2023/04/10 12:01:53;;;;;;;5.78;4.60;;;30.70;1.00;;;;;;5025754;28;20215;-76
2023/04/10 12:04:20;;;;;;;4.57;3.88;;;30.80;1.00;;;;;;5026184;28;20189;-77
2023/04/10 12:06:50;;;;;;;5.97;4.40;;;29.90;1.00;;;;;;5023133;28;20188;-75
2023/04/10 12:09:21;;;;;;;4.70;4.00;;;29.10;1.00;;;;;;5025013;28;20181;-76
2023/04/10 12:12:02;;;;;;;5.27;4.13;;;28.00;1.00;;;;;;5023061;28;20318;-75
2023/04/10 12:14:34;;;;;;;4.90;3.97;;;27.30;1.00;;;;;;5021345;28;20288;-75
2023/04/10 12:17:01;;;;;;;4.60;3.43;;;26.90;1.00;;;;;;5025064;28;20178;-74
2023/04/10 12:19:27;;;;;;;6.10;4.30;;;26.40;1.00;;;;;;5025225;28;20276;-77
2023/04/10 12:21:54;;;;;;;6.57;4.27;;;26.60;1.00;;;;;;5023364;28;20216;-76
2023/04/10 12:24:42;;;;;;;4.90;3.87;;;26.70;1.00;;;;;;5015227;28;20271;-76
2023/04/10 12:27:17;;;;;;;5.07;4.00;;;26.20;1.00;;;;;;5025970;28;20196;-76
2023/04/10 12:29:44;;;;;;;4.70;3.80;;;26.30;1.00;;;;;;5022656;28;20177;-76
2023/04/10 12:32:10;;;;;;;6.43;3.97;;;26.50;1.00;;;;;;5027472;28;20205;-75
2023/04/10 12:34:36;;;;;;;5.27;4.37;;;26.60;1.00;;;;;;5028796;28;20514;-75
2023/04/10 12:37:03;;;;;;;4.80;3.50;;;26.80;1.00;;;;;;5027293;28;20583;-75
2023/04/10 12:39:29;;;;;;;4.23;3.57;;;27.00;1.00;;;;;;5028332;28;20200;-76
2023/04/10 12:42:19;;;;;;;7.07;3.70;;;27.10;1.00;;;;;;5027371;28;20204;-76
2023/04/10 12:44:59;;;;;;;4.50;3.40;;;27.20;1.00;;;;;;5021088;28;20447;-76
2023/04/10 12:47:27;;;;;;;4.10;3.20;;;26.90;1.00;;;;;;5025084;28;20846;-76
2023/04/10 12:50:10;;;;;;;5.07;3.70;;;27.00;1.00;;;;;;5027076;28;20626;-76
2023/04/10 12:52:38;;;;;;;4.57;3.70;;;28.10;1.00;;;;;;5025998;28;20205;-76
2023/04/10 12:55:11;;;;;;;4.57;3.60;;;28.40;1.00;;;;;;5029050;28;20302;-76
2023/04/10 12:57:38;;;;;;;5.00;3.43;;;28.40;1.00;;;;;;5024064;28;20212;-76
2023/04/10 13:00:05;;;;;;;4.80;3.80;;;28.90;1.00;;;;;;5030307;28;20243;-76
2023/04/10 13:02:30;;;;;;;4.95;4.03;;;29.90;1.00;;;;;;5028595;28;20291;-76